Aviation Digital Data Service (ADDS)

Output produced by METARs form (2018 UTC 25 January 2015)
found at http://aviationweather.gov/adds/metars/
 
KFAY 251738Z 2518/2618 22006KT P6SM SCT250 
     FM261200 19007KT P6SM BKN080 
     FM261600 22007KT P6SM BKN050